Hua-yang, China
Current Conditions -  °F | °C
As of 1:00 PM on Tuesday 21 Oct 2014 (Local Time) from ZUUU Reporting Station
Clear Clear  
Wind Chill: 77°   Ceiling: Unl
Heat Index: 79°   Visibility: 5mi
Dew Point: 59°   Wind: 2mph
Humidity: 54%   Direction: NA
Pressure: 30.18"   Gusts: NA
Location:  30.5°N, 104.07°E
Report Text: ZUUU 210500Z VRB01MPS 8000 NSC 25/15 Q1022 NOSIG
Loading
Personal Weather Stations






























Interactive Weather Map New forecast layout! Learn more

10-Day Weather Forecast

Advertisements
Track Severe Weather on mobile